sensor_id;sensor_type;location;lat;lon;timestamp;P1;durP1;ratioP1;P2;durP2;ratioP2
46815;SDS011;32787;53.316;8.670;2022-07-29T00:02:01;5.72;;;2.33;;
46815;SDS011;32787;53.316;8.670;2022-07-29T00:04:26;6.47;;;2.20;;
46815;SDS011;32787;53.316;8.670;2022-07-29T00:06:52;5.18;;;2.10;;
46815;SDS011;32787;53.316;8.670;2022-07-29T00:09:18;5.25;;;2.08;;
46815;SDS011;32787;53.316;8.670;2022-07-29T00:11:43;6.60;;;2.90;;
46815;SDS011;32787;53.316;8.670;2022-07-29T00:14:09;6.43;;;2.28;;
46815;SDS011;32787;53.316;8.670;2022-07-29T00:16:35;6.55;;;2.42;;
46815;SDS011;32787;53.316;8.670;2022-07-29T00:19:00;11.13;;;2.65;;
46815;SDS011;32787;53.316;8.670;2022-07-29T00:21:26;6.65;;;2.28;;
46815;SDS011;32787;53.316;8.670;2022-07-29T00:23:52;7.63;;;2.22;;
46815;SDS011;32787;53.316;8.670;2022-07-29T00:26:18;5.70;;;2.42;;
46815;SDS011;32787;53.316;8.670;2022-07-29T00:28:43;5.43;;;2.10;;
46815;SDS011;32787;53.316;8.670;2022-07-29T00:31:09;6.53;;;2.55;;
46815;SDS011;32787;53.316;8.670;2022-07-29T00:33:34;6.05;;;2.40;;
46815;SDS011;32787;53.316;8.670;2022-07-29T00:36:00;6.20;;;2.42;;
46815;SDS011;32787;53.316;8.670;2022-07-29T00:38:26;6.43;;;2.55;;
46815;SDS011;32787;53.316;8.670;2022-07-29T00:40:51;9.02;;;2.53;;
46815;SDS011;32787;53.316;8.670;2022-07-29T00:43:17;5.85;;;2.30;;
46815;SDS011;32787;53.316;8.670;2022-07-29T00:45:43;4.88;;;2.22;;
46815;SDS011;32787;53.316;8.670;2022-07-29T00:48:09;5.88;;;2.38;;
46815;SDS011;32787;53.316;8.670;2022-07-29T00:50:35;7.30;;;2.58;;
46815;SDS011;32787;53.316;8.670;2022-07-29T00:53:02;7.25;;;2.40;;
46815;SDS011;32787;53.316;8.670;2022-07-29T00:55:28;7.32;;;2.47;;
46815;SDS011;32787;53.316;8.670;2022-07-29T00:57:54;5.38;;;2.15;;
46815;SDS011;32787;53.316;8.670;2022-07-29T01:00:22;6.85;;;2.20;;
46815;SDS011;32787;53.316;8.670;2022-07-29T01:02:50;7.30;;;2.30;;
46815;SDS011;32787;53.316;8.670;2022-07-29T01:05:16;6.10;;;2.40;;
46815;SDS011;32787;53.316;8.670;2022-07-29T01:07:44;7.80;;;2.45;;
46815;SDS011;32787;53.316;8.670;2022-07-29T01:10:11;6.72;;;2.33;;
46815;SDS011;32787;53.316;8.670;2022-07-29T01:12:39;5.07;;;2.17;;
46815;SDS011;32787;53.316;8.670;2022-07-29T01:15:08;6.20;;;2.20;;
46815;SDS011;32787;53.316;8.670;2022-07-29T01:20:56;7.07;;;2.50;;
46815;SDS011;32787;53.316;8.670;2022-07-29T01:34:25;9.35;;;2.50;;
46815;SDS011;32787;53.316;8.670;2022-07-29T01:37:39;8.35;;;2.75;;
46815;SDS011;32787;53.316;8.670;2022-07-29T01:39:49;7.05;;;2.47;;
46815;SDS011;32787;53.316;8.670;2022-07-29T01:44:54;9.60;;;2.65;;
46815;SDS011;32787;53.316;8.670;2022-07-29T01:47:25;7.30;;;2.30;;
46815;SDS011;32787;53.316;8.670;2022-07-29T01:49:56;8.60;;;2.60;;
46815;SDS011;32787;53.316;8.670;2022-07-29T01:52:33;8.27;;;2.50;;
46815;SDS011;32787;53.316;8.670;2022-07-29T01:55:04;8.88;;;2.40;;
46815;SDS011;32787;53.316;8.670;2022-07-29T01:57:34;6.10;;;2.40;;
46815;SDS011;32787;53.316;8.670;2022-07-29T02:00:03;6.85;;;2.65;;
46815;SDS011;32787;53.316;8.670;2022-07-29T02:02:30;8.10;;;2.53;;
46815;SDS011;32787;53.316;8.670;2022-07-29T02:04:58;8.85;;;2.67;;
46815;SDS011;32787;53.316;8.670;2022-07-29T02:07:27;7.72;;;2.45;;
46815;SDS011;32787;53.316;8.670;2022-07-29T02:09:56;8.13;;;2.63;;
46815;SDS011;32787;53.316;8.670;2022-07-29T02:12:25;5.30;;;2.08;;
46815;SDS011;32787;53.316;8.670;2022-07-29T02:14:52;6.82;;;2.35;;
46815;SDS011;32787;53.316;8.670;2022-07-29T02:17:25;5.82;;;2.20;;
46815;SDS011;32787;53.316;8.670;2022-07-29T02:19:55;7.28;;;2.33;;
46815;SDS011;32787;53.316;8.670;2022-07-29T02:22:23;6.53;;;2.40;;
46815;SDS011;32787;53.316;8.670;2022-07-29T02:24:50;7.22;;;2.42;;
46815;SDS011;32787;53.316;8.670;2022-07-29T02:27:17;9.85;;;2.65;;
46815;SDS011;32787;53.316;8.670;2022-07-29T02:29:45;8.70;;;2.15;;
46815;SDS011;32787;53.316;8.670;2022-07-29T02:32:12;11.07;;;2.67;;
46815;SDS011;32787;53.316;8.670;2022-07-29T02:34:41;6.15;;;2.28;;
46815;SDS011;32787;53.316;8.670;2022-07-29T02:37:09;7.05;;;2.22;;
46815;SDS011;32787;53.316;8.670;2022-07-29T02:39:36;5.57;;;2.38;;
46815;SDS011;32787;53.316;8.670;2022-07-29T02:42:05;6.32;;;2.30;;
46815;SDS011;32787;53.316;8.670;2022-07-29T02:44:32;6.75;;;1.90;;
46815;SDS011;32787;53.316;8.670;2022-07-29T02:52:28;4.65;;;2.25;;
46815;SDS011;32787;53.316;8.670;2022-07-29T02:57:48;5.82;;;1.98;;
46815;SDS011;32787;53.316;8.670;2022-07-29T03:00:19;8.27;;;2.40;;
46815;SDS011;32787;53.316;8.670;2022-07-29T03:02:49;7.35;;;2.50;;
46815;SDS011;32787;53.316;8.670;2022-07-29T03:05:18;8.30;;;2.47;;
46815;SDS011;32787;53.316;8.670;2022-07-29T03:07:46;5.90;;;2.22;;
46815;SDS011;32787;53.316;8.670;2022-07-29T03:10:18;6.25;;;2.30;;
46815;SDS011;32787;53.316;8.670;2022-07-29T03:12:43;6.95;;;2.10;;
46815;SDS011;32787;53.316;8.670;2022-07-29T03:15:09;5.53;;;2.10;;
46815;SDS011;32787;53.316;8.670;2022-07-29T03:17:36;5.18;;;2.03;;
46815;SDS011;32787;53.316;8.670;2022-07-29T03:20:03;9.30;;;2.40;;
46815;SDS011;32787;53.316;8.670;2022-07-29T03:22:29;6.82;;;2.90;;
46815;SDS011;32787;53.316;8.670;2022-07-29T03:24:55;6.82;;;2.08;;
46815;SDS011;32787;53.316;8.670;2022-07-29T03:27:21;7.55;;;2.13;;
46815;SDS011;32787;53.316;8.670;2022-07-29T03:29:47;6.55;;;2.03;;
46815;SDS011;32787;53.316;8.670;2022-07-29T03:32:12;5.82;;;1.88;;
46815;SDS011;32787;53.316;8.670;2022-07-29T03:34:38;5.68;;;2.05;;
46815;SDS011;32787;53.316;8.670;2022-07-29T03:37:04;5.88;;;2.13;;
46815;SDS011;32787;53.316;8.670;2022-07-29T03:39:31;8.85;;;2.55;;
46815;SDS011;32787;53.316;8.670;2022-07-29T03:42:01;6.60;;;2.00;;
46815;SDS011;32787;53.316;8.670;2022-07-29T03:44:28;7.95;;;2.15;;
46815;SDS011;32787;53.316;8.670;2022-07-29T03:46:55;10.30;;;2.42;;
46815;SDS011;32787;53.316;8.670;2022-07-29T03:49:24;4.60;;;1.90;;
46815;SDS011;32787;53.316;8.670;2022-07-29T03:51:52;4.43;;;1.98;;
46815;SDS011;32787;53.316;8.670;2022-07-29T03:54:17;7.72;;;2.30;;
46815;SDS011;32787;53.316;8.670;2022-07-29T03:56:45;7.50;;;2.35;;
46815;SDS011;32787;53.316;8.670;2022-07-29T03:59:13;7.35;;;2.30;;
46815;SDS011;32787;53.316;8.670;2022-07-29T04:01:41;9.98;;;2.15;;
46815;SDS011;32787;53.316;8.670;2022-07-29T04:04:08;7.10;;;2.30;;
46815;SDS011;32787;53.316;8.670;2022-07-29T04:06:40;7.10;;;1.95;;
46815;SDS011;32787;53.316;8.670;2022-07-29T04:09:07;6.75;;;2.35;;
46815;SDS011;32787;53.316;8.670;2022-07-29T04:11:33;7.03;;;2.22;;
46815;SDS011;32787;53.316;8.670;2022-07-29T04:14:00;8.23;;;2.35;;
46815;SDS011;32787;53.316;8.670;2022-07-29T04:16:26;5.20;;;2.20;;
46815;SDS011;32787;53.316;8.670;2022-07-29T04:18:52;5.60;;;2.10;;
46815;SDS011;32787;53.316;8.670;2022-07-29T04:21:17;8.45;;;2.67;;
46815;SDS011;32787;53.316;8.670;2022-07-29T04:23:43;9.43;;;2.30;;
46815;SDS011;32787;53.316;8.670;2022-07-29T04:26:10;7.60;;;2.42;;
46815;SDS011;32787;53.316;8.670;2022-07-29T04:28:36;8.23;;;2.55;;
46815;SDS011;32787;53.316;8.670;2022-07-29T04:31:04;7.25;;;2.03;;
46815;SDS011;32787;53.316;8.670;2022-07-29T04:33:30;7.07;;;2.47;;
46815;SDS011;32787;53.316;8.670;2022-07-29T04:35:55;8.32;;;2.70;;
46815;SDS011;32787;53.316;8.670;2022-07-29T04:38:21;4.55;;;2.05;;
46815;SDS011;32787;53.316;8.670;2022-07-29T04:40:47;8.40;;;2.35;;
46815;SDS011;32787;53.316;8.670;2022-07-29T04:43:12;7.32;;;2.50;;
46815;SDS011;32787;53.316;8.670;2022-07-29T04:45:38;12.10;;;2.45;;
46815;SDS011;32787;53.316;8.670;2022-07-29T04:48:04;6.95;;;2.13;;
46815;SDS011;32787;53.316;8.670;2022-07-29T04:50:30;7.55;;;2.47;;
46815;SDS011;32787;53.316;8.670;2022-07-29T04:52:55;6.15;;;2.05;;
46815;SDS011;32787;53.316;8.670;2022-07-29T04:55:21;6.97;;;2.10;;
46815;SDS011;32787;53.316;8.670;2022-07-29T04:57:46;6.68;;;2.55;;
46815;SDS011;32787;53.316;8.670;2022-07-29T05:00:12;7.55;;;2.35;;
46815;SDS011;32787;53.316;8.670;2022-07-29T05:02:38;11.68;;;2.80;;
46815;SDS011;32787;53.316;8.670;2022-07-29T05:05:04;9.45;;;2.45;;
46815;SDS011;32787;53.316;8.670;2022-07-29T05:07:30;10.75;;;2.40;;
46815;SDS011;32787;53.316;8.670;2022-07-29T05:09:55;7.65;;;2.63;;
46815;SDS011;32787;53.316;8.670;2022-07-29T05:12:22;10.57;;;2.78;;
46815;SDS011;32787;53.316;8.670;2022-07-29T05:14:51;7.00;;;2.40;;
46815;SDS011;32787;53.316;8.670;2022-07-29T05:17:16;6.95;;;2.53;;
46815;SDS011;32787;53.316;8.670;2022-07-29T05:19:42;5.35;;;2.20;;
46815;SDS011;32787;53.316;8.670;2022-07-29T05:22:08;8.00;;;2.33;;
46815;SDS011;32787;53.316;8.670;2022-07-29T05:24:33;10.23;;;2.80;;
46815;SDS011;32787;53.316;8.670;2022-07-29T05:26:59;8.93;;;2.53;;
46815;SDS011;32787;53.316;8.670;2022-07-29T05:29:24;6.90;;;2.33;;
46815;SDS011;32787;53.316;8.670;2022-07-29T05:31:50;5.35;;;2.25;;
46815;SDS011;32787;53.316;8.670;2022-07-29T05:34:17;7.15;;;2.67;;
46815;SDS011;32787;53.316;8.670;2022-07-29T05:36:44;9.68;;;2.53;;
46815;SDS011;32787;53.316;8.670;2022-07-29T05:39:10;8.55;;;3.10;;
46815;SDS011;32787;53.316;8.670;2022-07-29T05:41:36;8.77;;;2.88;;
46815;SDS011;32787;53.316;8.670;2022-07-29T05:44:01;7.10;;;2.38;;
46815;SDS011;32787;53.316;8.670;2022-07-29T05:46:27;7.40;;;2.50;;
46815;SDS011;32787;53.316;8.670;2022-07-29T05:48:53;7.25;;;2.40;;
46815;SDS011;32787;53.316;8.670;2022-07-29T05:51:18;8.30;;;2.50;;
46815;SDS011;32787;53.316;8.670;2022-07-29T05:53:44;5.68;;;2.17;;
46815;SDS011;32787;53.316;8.670;2022-07-29T05:56:10;5.50;;;2.30;;
46815;SDS011;32787;53.316;8.670;2022-07-29T05:58:35;11.18;;;2.90;;
46815;SDS011;32787;53.316;8.670;2022-07-29T06:01:01;8.98;;;2.92;;
46815;SDS011;32787;53.316;8.670;2022-07-29T06:03:27;6.63;;;2.63;;
46815;SDS011;32787;53.316;8.670;2022-07-29T06:05:53;7.07;;;2.67;;
46815;SDS011;32787;53.316;8.670;2022-07-29T06:08:19;7.47;;;2.70;;
46815;SDS011;32787;53.316;8.670;2022-07-29T06:10:45;7.85;;;2.35;;
46815;SDS011;32787;53.316;8.670;2022-07-29T06:13:11;11.77;;;4.80;;
46815;SDS011;32787;53.316;8.670;2022-07-29T06:15:37;13.93;;;3.42;;
46815;SDS011;32787;53.316;8.670;2022-07-29T06:18:03;11.35;;;3.35;;
46815;SDS011;32787;53.316;8.670;2022-07-29T06:20:32;7.10;;;2.50;;
46815;SDS011;32787;53.316;8.670;2022-07-29T06:22:58;6.13;;;2.10;;
46815;SDS011;32787;53.316;8.670;2022-07-29T06:25:24;6.82;;;2.70;;
46815;SDS011;32787;53.316;8.670;2022-07-29T06:27:50;9.52;;;2.45;;
46815;SDS011;32787;53.316;8.670;2022-07-29T06:30:15;7.47;;;2.38;;
46815;SDS011;32787;53.316;8.670;2022-07-29T06:32:41;6.50;;;2.20;;
46815;SDS011;32787;53.316;8.670;2022-07-29T06:35:06;14.52;;;2.90;;
46815;SDS011;32787;53.316;8.670;2022-07-29T06:37:32;12.05;;;2.70;;
46815;SDS011;32787;53.316;8.670;2022-07-29T06:39:58;11.70;;;2.60;;
46815;SDS011;32787;53.316;8.670;2022-07-29T06:42:43;6.50;;;2.35;;
46815;SDS011;32787;53.316;8.670;2022-07-29T06:45:10;6.13;;;2.05;;
46815;SDS011;32787;53.316;8.670;2022-07-29T06:47:36;10.13;;;2.70;;
46815;SDS011;32787;53.316;8.670;2022-07-29T06:50:02;6.38;;;2.40;;
46815;SDS011;32787;53.316;8.670;2022-07-29T06:52:28;6.75;;;2.53;;
46815;SDS011;32787;53.316;8.670;2022-07-29T06:54:54;7.05;;;2.13;;
46815;SDS011;32787;53.316;8.670;2022-07-29T06:57:20;7.47;;;2.40;;
46815;SDS011;32787;53.316;8.670;2022-07-29T06:59:46;10.88;;;2.67;;
46815;SDS011;32787;53.316;8.670;2022-07-29T07:02:12;8.02;;;2.53;;
46815;SDS011;32787;53.316;8.670;2022-07-29T07:04:38;8.48;;;2.17;;
46815;SDS011;32787;53.316;8.670;2022-07-29T07:07:04;13.90;;;2.97;;
46815;SDS011;32787;53.316;8.670;2022-07-29T07:09:29;18.00;;;4.13;;
46815;SDS011;32787;53.316;8.670;2022-07-29T07:11:55;11.88;;;2.72;;
46815;SDS011;32787;53.316;8.670;2022-07-29T07:14:20;12.27;;;2.53;;
46815;SDS011;32787;53.316;8.670;2022-07-29T07:16:46;11.05;;;2.95;;
46815;SDS011;32787;53.316;8.670;2022-07-29T07:19:12;10.07;;;2.42;;
46815;SDS011;32787;53.316;8.670;2022-07-29T07:21:38;10.40;;;2.60;;
46815;SDS011;32787;53.316;8.670;2022-07-29T07:24:03;7.53;;;2.53;;
46815;SDS011;32787;53.316;8.670;2022-07-29T07:26:29;8.40;;;2.53;;
46815;SDS011;32787;53.316;8.670;2022-07-29T07:28:55;9.63;;;2.67;;
46815;SDS011;32787;53.316;8.670;2022-07-29T07:31:21;5.70;;;2.17;;
46815;SDS011;32787;53.316;8.670;2022-07-29T07:33:47;7.90;;;2.60;;
46815;SDS011;32787;53.316;8.670;2022-07-29T07:36:13;8.20;;;2.55;;
46815;SDS011;32787;53.316;8.670;2022-07-29T07:38:38;13.75;;;2.30;;
46815;SDS011;32787;53.316;8.670;2022-07-29T07:41:04;6.78;;;2.20;;
46815;SDS011;32787;53.316;8.670;2022-07-29T07:43:30;7.50;;;2.60;;
46815;SDS011;32787;53.316;8.670;2022-07-29T07:45:55;14.57;;;2.60;;
46815;SDS011;32787;53.316;8.670;2022-07-29T07:48:22;8.20;;;2.80;;
46815;SDS011;32787;53.316;8.670;2022-07-29T07:50:47;7.30;;;2.75;;
46815;SDS011;32787;53.316;8.670;2022-07-29T07:53:14;8.05;;;2.45;;
46815;SDS011;32787;53.316;8.670;2022-07-29T07:55:43;9.48;;;2.22;;
46815;SDS011;32787;53.316;8.670;2022-07-29T07:58:09;10.50;;;2.53;;
46815;SDS011;32787;53.316;8.670;2022-07-29T08:00:35;6.63;;;2.90;;
46815;SDS011;32787;53.316;8.670;2022-07-29T08:03:01;8.48;;;2.42;;
46815;SDS011;32787;53.316;8.670;2022-07-29T08:05:27;13.02;;;2.78;;
46815;SDS011;32787;53.316;8.670;2022-07-29T08:07:53;6.55;;;2.45;;
46815;SDS011;32787;53.316;8.670;2022-07-29T08:10:19;10.93;;;2.83;;
46815;SDS011;32787;53.316;8.670;2022-07-29T08:13:04;10.25;;;2.78;;
46815;SDS011;32787;53.316;8.670;2022-07-29T08:15:31;7.50;;;2.28;;
46815;SDS011;32787;53.316;8.670;2022-07-29T08:17:57;7.82;;;2.47;;
46815;SDS011;32787;53.316;8.670;2022-07-29T08:20:23;7.03;;;2.05;;
46815;SDS011;32787;53.316;8.670;2022-07-29T08:22:49;8.95;;;2.65;;
46815;SDS011;32787;53.316;8.670;2022-07-29T08:25:15;6.55;;;2.20;;
46815;SDS011;32787;53.316;8.670;2022-07-29T08:27:42;7.10;;;2.67;;
46815;SDS011;32787;53.316;8.670;2022-07-29T08:30:08;8.02;;;2.47;;
46815;SDS011;32787;53.316;8.670;2022-07-29T08:32:35;9.07;;;2.85;;
46815;SDS011;32787;53.316;8.670;2022-07-29T08:35:01;7.88;;;2.47;;
46815;SDS011;32787;53.316;8.670;2022-07-29T08:37:26;6.20;;;2.20;;
46815;SDS011;32787;53.316;8.670;2022-07-29T08:39:52;7.82;;;2.42;;
46815;SDS011;32787;53.316;8.670;2022-07-29T08:42:17;5.53;;;2.25;;
46815;SDS011;32787;53.316;8.670;2022-07-29T08:44:43;8.57;;;1.80;;
46815;SDS011;32787;53.316;8.670;2022-07-29T08:47:09;6.03;;;2.10;;
46815;SDS011;32787;53.316;8.670;2022-07-29T08:49:38;9.05;;;2.25;;
46815;SDS011;32787;53.316;8.670;2022-07-29T08:52:05;7.10;;;1.90;;
46815;SDS011;32787;53.316;8.670;2022-07-29T08:54:31;8.48;;;2.53;;
46815;SDS011;32787;53.316;8.670;2022-07-29T08:56:57;9.55;;;2.00;;
46815;SDS011;32787;53.316;8.670;2022-07-29T08:59:25;8.20;;;2.20;;
46815;SDS011;32787;53.316;8.670;2022-07-29T09:01:52;5.85;;;1.80;;
46815;SDS011;32787;53.316;8.670;2022-07-29T09:04:19;11.13;;;2.40;;
46815;SDS011;32787;53.316;8.670;2022-07-29T09:06:46;7.85;;;2.17;;
46815;SDS011;32787;53.316;8.670;2022-07-29T09:09:14;15.15;;;2.28;;
46815;SDS011;32787;53.316;8.670;2022-07-29T09:11:40;4.85;;;1.83;;
46815;SDS011;32787;53.316;8.670;2022-07-29T09:14:07;6.47;;;1.90;;
46815;SDS011;32787;53.316;8.670;2022-07-29T09:16:43;6.43;;;2.22;;
46815;SDS011;32787;53.316;8.670;2022-07-29T09:21:46;6.63;;;2.03;;
46815;SDS011;32787;53.316;8.670;2022-07-29T09:24:35;8.32;;;2.08;;
46815;SDS011;32787;53.316;8.670;2022-07-29T09:27:22;7.20;;;2.15;;
46815;SDS011;32787;53.316;8.670;2022-07-29T09:30:03;7.72;;;2.10;;
46815;SDS011;32787;53.316;8.670;2022-07-29T09:37:43;8.80;;;1.80;;
46815;SDS011;32787;53.316;8.670;2022-07-29T09:40:16;6.32;;;2.03;;
46815;SDS011;32787;53.316;8.670;2022-07-29T09:42:45;6.65;;;1.88;;
46815;SDS011;32787;53.316;8.670;2022-07-29T09:45:11;6.63;;;1.80;;
46815;SDS011;32787;53.316;8.670;2022-07-29T09:47:45;6.93;;;1.90;;
46815;SDS011;32787;53.316;8.670;2022-07-29T09:50:14;7.28;;;1.92;;
46815;SDS011;32787;53.316;8.670;2022-07-29T09:52:59;6.22;;;2.10;;
46815;SDS011;32787;53.316;8.670;2022-07-29T09:55:24;6.03;;;1.95;;
46815;SDS011;32787;53.316;8.670;2022-07-29T09:57:50;8.35;;;2.00;;
46815;SDS011;32787;53.316;8.670;2022-07-29T10:00:16;5.38;;;1.83;;
46815;SDS011;32787;53.316;8.670;2022-07-29T10:02:44;6.65;;;1.67;;
46815;SDS011;32787;53.316;8.670;2022-07-29T10:05:18;6.03;;;1.55;;
46815;SDS011;32787;53.316;8.670;2022-07-29T10:10:19;7.05;;;1.52;;
46815;SDS011;32787;53.316;8.670;2022-07-29T10:12:53;9.77;;;2.08;;
46815;SDS011;32787;53.316;8.670;2022-07-29T10:15:27;6.13;;;1.90;;
46815;SDS011;32787;53.316;8.670;2022-07-29T10:17:55;7.25;;;1.55;;
46815;SDS011;32787;53.316;8.670;2022-07-29T10:20:21;5.68;;;2.00;;
46815;SDS011;32787;53.316;8.670;2022-07-29T10:22:48;9.02;;;1.70;;
46815;SDS011;32787;53.316;8.670;2022-07-29T10:25:15;4.32;;;1.30;;
46815;SDS011;32787;53.316;8.670;2022-07-29T10:27:43;6.95;;;1.67;;
46815;SDS011;32787;53.316;8.670;2022-07-29T10:30:13;6.25;;;1.67;;
46815;SDS011;32787;53.316;8.670;2022-07-29T10:44:18;5.82;;;1.63;;
46815;SDS011;32787;53.316;8.670;2022-07-29T10:46:46;7.90;;;1.85;;
46815;SDS011;32787;53.316;8.670;2022-07-29T10:49:16;8.63;;;2.05;;
46815;SDS011;32787;53.316;8.670;2022-07-29T10:59:41;6.25;;;1.60;;
46815;SDS011;32787;53.316;8.670;2022-07-29T11:07:22;7.43;;;1.70;;
46815;SDS011;32787;53.316;8.670;2022-07-29T11:12:52;5.95;;;1.77;;
46815;SDS011;32787;53.316;8.670;2022-07-29T11:15:21;8.23;;;1.85;;
46815;SDS011;32787;53.316;8.670;2022-07-29T11:28:49;4.68;;;1.40;;
46815;SDS011;32787;53.316;8.670;2022-07-29T11:31:31;9.80;;;1.80;;
46815;SDS011;32787;53.316;8.670;2022-07-29T11:40:11;6.32;;;1.85;;
46815;SDS011;32787;53.316;8.670;2022-07-29T11:45:09;6.88;;;1.70;;
46815;SDS011;32787;53.316;8.670;2022-07-29T11:47:57;8.43;;;1.77;;
46815;SDS011;32787;53.316;8.670;2022-07-29T11:50:28;8.98;;;2.00;;
46815;SDS011;32787;53.316;8.670;2022-07-29T11:53:00;6.22;;;1.90;;
46815;SDS011;32787;53.316;8.670;2022-07-29T11:55:27;7.03;;;1.85;;
46815;SDS011;32787;53.316;8.670;2022-07-29T11:57:56;8.10;;;2.63;;
46815;SDS011;32787;53.316;8.670;2022-07-29T12:02:58;7.80;;;2.00;;
46815;SDS011;32787;53.316;8.670;2022-07-29T12:05:31;9.70;;;2.17;;
46815;SDS011;32787;53.316;8.670;2022-07-29T12:08:03;5.20;;;1.73;;
46815;SDS011;32787;53.316;8.670;2022-07-29T12:10:37;6.43;;;2.25;;
46815;SDS011;32787;53.316;8.670;2022-07-29T12:13:03;7.55;;;1.58;;
46815;SDS011;32787;53.316;8.670;2022-07-29T12:15:30;6.55;;;1.73;;
46815;SDS011;32787;53.316;8.670;2022-07-29T12:17:55;6.72;;;1.63;;
46815;SDS011;32787;53.316;8.670;2022-07-29T12:20:22;6.03;;;1.52;;
46815;SDS011;32787;53.316;8.670;2022-07-29T12:22:52;6.38;;;1.88;;
46815;SDS011;32787;53.316;8.670;2022-07-29T12:25:19;10.07;;;2.10;;
46815;SDS011;32787;53.316;8.670;2022-07-29T12:27:47;7.30;;;2.13;;
46815;SDS011;32787;53.316;8.670;2022-07-29T12:30:16;6.40;;;1.70;;
46815;SDS011;32787;53.316;8.670;2022-07-29T12:32:42;6.25;;;2.35;;
46815;SDS011;32787;53.316;8.670;2022-07-29T12:35:16;7.82;;;1.83;;
46815;SDS011;32787;53.316;8.670;2022-07-29T12:37:44;7.30;;;2.20;;
46815;SDS011;32787;53.316;8.670;2022-07-29T12:40:13;6.75;;;1.77;;
46815;SDS011;32787;53.316;8.670;2022-07-29T12:42:41;6.40;;;2.35;;
46815;SDS011;32787;53.316;8.670;2022-07-29T12:45:28;6.22;;;1.80;;
46815;SDS011;32787;53.316;8.670;2022-07-29T12:47:54;8.38;;;1.90;;
46815;SDS011;32787;53.316;8.670;2022-07-29T12:50:20;8.60;;;2.00;;
46815;SDS011;32787;53.316;8.670;2022-07-29T12:52:46;7.13;;;1.95;;
46815;SDS011;32787;53.316;8.670;2022-07-29T12:55:12;8.10;;;1.95;;
46815;SDS011;32787;53.316;8.670;2022-07-29T12:57:45;6.72;;;1.70;;
46815;SDS011;32787;53.316;8.670;2022-07-29T13:00:12;7.97;;;2.08;;
46815;SDS011;32787;53.316;8.670;2022-07-29T13:02:39;6.95;;;1.77;;
46815;SDS011;32787;53.316;8.670;2022-07-29T13:05:07;5.18;;;2.05;;
46815;SDS011;32787;53.316;8.670;2022-07-29T13:07:34;8.00;;;2.03;;
46815;SDS011;32787;53.316;8.670;2022-07-29T13:15:39;11.18;;;2.40;;
46815;SDS011;32787;53.316;8.670;2022-07-29T13:18:26;6.93;;;1.90;;
46815;SDS011;32787;53.316;8.670;2022-07-29T13:21:11;6.53;;;1.67;;
46815;SDS011;32787;53.316;8.670;2022-07-29T13:26:07;7.00;;;1.95;;
46815;SDS011;32787;53.316;8.670;2022-07-29T13:28:34;9.20;;;1.90;;
46815;SDS011;32787;53.316;8.670;2022-07-29T13:31:00;5.60;;;1.90;;
46815;SDS011;32787;53.316;8.670;2022-07-29T13:33:26;10.02;;;2.20;;
46815;SDS011;32787;53.316;8.670;2022-07-29T13:35:52;5.40;;;1.95;;
46815;SDS011;32787;53.316;8.670;2022-07-29T13:38:17;5.72;;;2.10;;
46815;SDS011;32787;53.316;8.670;2022-07-29T13:40:43;5.50;;;1.85;;
46815;SDS011;32787;53.316;8.670;2022-07-29T13:43:09;7.88;;;2.05;;
46815;SDS011;32787;53.316;8.670;2022-07-29T13:45:35;8.10;;;1.98;;
46815;SDS011;32787;53.316;8.670;2022-07-29T13:48:01;6.40;;;2.03;;
46815;SDS011;32787;53.316;8.670;2022-07-29T13:50:27;6.40;;;1.90;;
46815;SDS011;32787;53.316;8.670;2022-07-29T13:52:53;7.53;;;2.08;;
46815;SDS011;32787;53.316;8.670;2022-07-29T13:55:18;7.60;;;2.38;;
46815;SDS011;32787;53.316;8.670;2022-07-29T13:57:44;7.95;;;2.20;;
46815;SDS011;32787;53.316;8.670;2022-07-29T14:00:10;8.73;;;2.40;;
46815;SDS011;32787;53.316;8.670;2022-07-29T14:02:37;6.60;;;2.08;;
46815;SDS011;32787;53.316;8.670;2022-07-29T14:05:03;7.53;;;2.03;;
46815;SDS011;32787;53.316;8.670;2022-07-29T14:07:32;4.93;;;1.73;;
46815;SDS011;32787;53.316;8.670;2022-07-29T14:09:58;7.60;;;1.90;;
46815;SDS011;32787;53.316;8.670;2022-07-29T14:12:24;8.57;;;2.30;;
46815;SDS011;32787;53.316;8.670;2022-07-29T14:14:49;6.25;;;2.13;;
46815;SDS011;32787;53.316;8.670;2022-07-29T14:17:15;4.63;;;1.88;;
46815;SDS011;32787;53.316;8.670;2022-07-29T14:19:41;6.68;;;1.80;;
46815;SDS011;32787;53.316;8.670;2022-07-29T14:22:07;7.65;;;1.70;;
46815;SDS011;32787;53.316;8.670;2022-07-29T14:24:33;5.85;;;1.77;;
46815;SDS011;32787;53.316;8.670;2022-07-29T14:27:00;8.32;;;2.00;;
46815;SDS011;32787;53.316;8.670;2022-07-29T14:29:26;5.90;;;1.67;;
46815;SDS011;32787;53.316;8.670;2022-07-29T14:31:52;6.40;;;1.90;;
46815;SDS011;32787;53.316;8.670;2022-07-29T14:34:18;7.00;;;2.00;;
46815;SDS011;32787;53.316;8.670;2022-07-29T14:36:43;6.18;;;1.65;;
46815;SDS011;32787;53.316;8.670;2022-07-29T14:39:09;7.03;;;2.05;;
46815;SDS011;32787;53.316;8.670;2022-07-29T14:41:35;7.07;;;2.20;;
46815;SDS011;32787;53.316;8.670;2022-07-29T14:44:01;7.57;;;1.77;;
46815;SDS011;32787;53.316;8.670;2022-07-29T14:46:27;9.77;;;2.25;;
46815;SDS011;32787;53.316;8.670;2022-07-29T14:48:53;8.98;;;2.00;;
46815;SDS011;32787;53.316;8.670;2022-07-29T14:51:18;6.10;;;2.00;;
46815;SDS011;32787;53.316;8.670;2022-07-29T14:53:44;10.55;;;2.30;;
46815;SDS011;32787;53.316;8.670;2022-07-29T14:56:10;8.25;;;2.05;;
46815;SDS011;32787;53.316;8.670;2022-07-29T14:58:35;6.90;;;2.22;;
46815;SDS011;32787;53.316;8.670;2022-07-29T15:01:01;7.13;;;2.00;;
46815;SDS011;32787;53.316;8.670;2022-07-29T15:03:27;5.38;;;1.70;;
46815;SDS011;32787;53.316;8.670;2022-07-29T15:05:53;7.25;;;2.00;;
46815;SDS011;32787;53.316;8.670;2022-07-29T15:08:19;8.60;;;2.10;;
46815;SDS011;32787;53.316;8.670;2022-07-29T15:10:44;7.68;;;1.70;;
46815;SDS011;32787;53.316;8.670;2022-07-29T15:13:10;7.55;;;2.30;;
46815;SDS011;32787;53.316;8.670;2022-07-29T15:15:36;10.55;;;2.10;;
46815;SDS011;32787;53.316;8.670;2022-07-29T15:18:01;7.47;;;2.08;;
46815;SDS011;32787;53.316;8.670;2022-07-29T15:20:27;5.32;;;1.85;;
46815;SDS011;32787;53.316;8.670;2022-07-29T15:22:53;5.47;;;1.80;;
46815;SDS011;32787;53.316;8.670;2022-07-29T15:25:20;8.43;;;2.00;;
46815;SDS011;32787;53.316;8.670;2022-07-29T15:27:47;5.70;;;1.58;;
46815;SDS011;32787;53.316;8.670;2022-07-29T15:30:12;8.63;;;1.80;;
46815;SDS011;32787;53.316;8.670;2022-07-29T15:32:41;5.93;;;1.80;;
46815;SDS011;32787;53.316;8.670;2022-07-29T15:35:07;4.90;;;1.77;;
46815;SDS011;32787;53.316;8.670;2022-07-29T15:37:35;10.02;;;2.00;;
46815;SDS011;32787;53.316;8.670;2022-07-29T15:40:01;4.45;;;1.45;;
46815;SDS011;32787;53.316;8.670;2022-07-29T15:42:27;4.40;;;1.30;;
46815;SDS011;32787;53.316;8.670;2022-07-29T15:44:52;7.38;;;1.48;;
46815;SDS011;32787;53.316;8.670;2022-07-29T15:47:18;5.45;;;1.67;;
46815;SDS011;32787;53.316;8.670;2022-07-29T15:49:43;6.53;;;1.60;;
46815;SDS011;32787;53.316;8.670;2022-07-29T15:52:09;5.38;;;1.90;;
46815;SDS011;32787;53.316;8.670;2022-07-29T15:54:36;4.82;;;1.45;;
46815;SDS011;32787;53.316;8.670;2022-07-29T15:57:04;4.95;;;1.98;;
46815;SDS011;32787;53.316;8.670;2022-07-29T15:59:30;5.38;;;1.70;;
46815;SDS011;32787;53.316;8.670;2022-07-29T16:01:56;4.57;;;1.70;;
46815;SDS011;32787;53.316;8.670;2022-07-29T16:04:21;6.60;;;1.80;;
46815;SDS011;32787;53.316;8.670;2022-07-29T16:06:48;6.10;;;1.67;;
46815;SDS011;32787;53.316;8.670;2022-07-29T16:09:14;5.10;;;1.63;;
46815;SDS011;32787;53.316;8.670;2022-07-29T16:11:40;8.13;;;2.08;;
46815;SDS011;32787;53.316;8.670;2022-07-29T16:14:07;6.13;;;1.80;;
46815;SDS011;32787;53.316;8.670;2022-07-29T16:16:34;6.75;;;1.75;;
46815;SDS011;32787;53.316;8.670;2022-07-29T16:19:00;5.43;;;2.03;;
46815;SDS011;32787;53.316;8.670;2022-07-29T16:21:26;5.97;;;1.60;;